sensor_id;sensor_type;location;lat;lon;timestamp;P1;durP1;ratioP1;P2;durP2;ratioP2
64018;SDS011;66942;52.138;5.216;2023-03-23T00:01:10;7.3;;;6.6;;
64018;SDS011;66942;52.138;5.216;2023-03-23T00:04:25;7.3;;;6.6;;
64018;SDS011;66942;52.138;5.216;2023-03-23T00:06:01;8.5;;;6.9;;
64018;SDS011;66942;52.138;5.216;2023-03-23T00:07:38;7.1;;;6.4;;
64018;SDS011;66942;52.138;5.216;2023-03-23T00:10:51;6.5;;;5.9;;
64018;SDS011;66942;52.138;5.216;2023-03-23T00:12:29;6.2;;;5.7;;
64018;SDS011;66942;52.138;5.216;2023-03-23T00:14:07;7.4;;;6.1;;
64018;SDS011;66942;52.138;5.216;2023-03-23T00:15:45;6.6;;;5.9;;
64018;SDS011;66942;52.138;5.216;2023-03-23T00:18:59;5.8;;;5.4;;
64018;SDS011;66942;52.138;5.216;2023-03-23T00:20:37;5.6;;;5.11;;
64018;SDS011;66942;52.138;5.216;2023-03-23T00:22:15;6.1;;;5.6;;
64018;SDS011;66942;52.138;5.216;2023-03-23T00:25:29;6.4;;;5.8;;
64018;SDS011;66942;52.138;5.216;2023-03-23T00:27:05;6.2;;;5.7;;
64018;SDS011;66942;52.138;5.216;2023-03-23T00:28:41;5.6;;;5.11;;
64018;SDS011;66942;52.138;5.216;2023-03-23T00:31:53;5.7;;;5.2;;
64018;SDS011;66942;52.138;5.216;2023-03-23T00:33:30;5.5;;;5.0;;
64018;SDS011;66942;52.138;5.216;2023-03-23T00:35:09;5.4;;;4.91;;
64018;SDS011;66942;52.138;5.216;2023-03-23T00:36:45;5.6;;;5.11;;
64018;SDS011;66942;52.138;5.216;2023-03-23T00:40:00;5.8;;;5.2;;
64018;SDS011;66942;52.138;5.216;2023-03-23T00:41:36;5.5;;;5.0;;
64018;SDS011;66942;52.138;5.216;2023-03-23T00:43:12;6.0;;;5.3;;
64018;SDS011;66942;52.138;5.216;2023-03-23T00:46:25;6.2;;;4.8;;
64018;SDS011;66942;52.138;5.216;2023-03-23T00:48:01;5.6;;;5.11;;
64018;SDS011;66942;52.138;5.216;2023-03-23T00:49:37;5.2;;;4.5;;
64018;SDS011;66942;52.138;5.216;2023-03-23T00:52:50;4.8;;;4.3;;
64018;SDS011;66942;52.138;5.216;2023-03-23T00:54:27;5.4;;;4.8;;
64018;SDS011;66942;52.138;5.216;2023-03-23T00:56:04;4.91;;;4.2;;
64018;SDS011;66942;52.138;5.216;2023-03-23T00:57:41;4.8;;;4.3;;
64018;SDS011;66942;52.138;5.216;2023-03-23T01:00:54;4.61;;;4.2;;
64018;SDS011;66942;52.138;5.216;2023-03-23T01:02:30;4.41;;;4.1;;
64018;SDS011;66942;52.138;5.216;2023-03-23T01:04:06;5.0;;;4.1;;
64018;SDS011;66942;52.138;5.216;2023-03-23T01:07:21;4.91;;;4.41;;
64018;SDS011;66942;52.138;5.216;2023-03-23T01:08:58;5.3;;;3.7;;
64018;SDS011;66942;52.138;5.216;2023-03-23T01:10:35;6.5;;;4.1;;
64018;SDS011;66942;52.138;5.216;2023-03-23T01:13:47;4.5;;;4.1;;
64018;SDS011;66942;52.138;5.216;2023-03-23T01:15:23;5.7;;;3.9;;
64018;SDS011;66942;52.138;5.216;2023-03-23T01:16:59;4.7;;;4.3;;
64018;SDS011;66942;52.138;5.216;2023-03-23T01:18:35;4.1;;;3.7;;
64018;SDS011;66942;52.138;5.216;2023-03-23T01:21:50;5.3;;;4.1;;
64018;SDS011;66942;52.138;5.216;2023-03-23T01:23:26;5.4;;;4.2;;
64018;SDS011;66942;52.138;5.216;2023-03-23T01:25:03;7.8;;;4.7;;
64018;SDS011;66942;52.138;5.216;2023-03-23T01:28:16;4.61;;;4.2;;
64018;SDS011;66942;52.138;5.216;2023-03-23T01:29:52;4.91;;;4.5;;
64018;SDS011;66942;52.138;5.216;2023-03-23T01:31:28;5.5;;;5.0;;
64018;SDS011;66942;52.138;5.216;2023-03-23T01:34:40;5.4;;;4.7;;
64018;SDS011;66942;52.138;5.216;2023-03-23T01:36:18;4.91;;;4.5;;
64018;SDS011;66942;52.138;5.216;2023-03-23T01:37:56;5.2;;;4.5;;
64018;SDS011;66942;52.138;5.216;2023-03-23T01:39:33;4.61;;;4.3;;
64018;SDS011;66942;52.138;5.216;2023-03-23T01:42:50;5.11;;;4.61;;
64018;SDS011;66942;52.138;5.216;2023-03-23T01:45:17;4.41;;;4.0;;
64018;SDS011;66942;52.138;5.216;2023-03-23T01:47:01;4.7;;;4.2;;
64018;SDS011;66942;52.138;5.216;2023-03-23T01:48:38;4.61;;;4.2;;
64018;SDS011;66942;52.138;5.216;2023-03-23T01:50:15;4.3;;;4.0;;
64018;SDS011;66942;52.138;5.216;2023-03-23T01:53:36;4.61;;;4.2;;
64018;SDS011;66942;52.138;5.216;2023-03-23T01:55:16;4.1;;;3.7;;
64018;SDS011;66942;52.138;5.216;2023-03-23T01:56:53;5.11;;;3.8;;
64018;SDS011;66942;52.138;5.216;2023-03-23T01:58:34;4.1;;;3.8;;
64018;SDS011;66942;52.138;5.216;2023-03-23T02:01:50;3.7;;;3.4;;
64018;SDS011;66942;52.138;5.216;2023-03-23T02:03:28;4.2;;;3.8;;
64018;SDS011;66942;52.138;5.216;2023-03-23T02:05:08;3.8;;;3.5;;
64018;SDS011;66942;52.138;5.216;2023-03-23T02:06:49;4.41;;;3.4;;
64018;SDS011;66942;52.138;5.216;2023-03-23T02:10:04;4.3;;;4.0;;
64018;SDS011;66942;52.138;5.216;2023-03-23T02:11:41;3.9;;;3.6;;
64018;SDS011;66942;52.138;5.216;2023-03-23T02:13:17;4.2;;;3.8;;
64018;SDS011;66942;52.138;5.216;2023-03-23T02:16:33;4.2;;;3.7;;
64018;SDS011;66942;52.138;5.216;2023-03-23T02:18:25;3.9;;;3.6;;
64018;SDS011;66942;52.138;5.216;2023-03-23T02:20:16;5.6;;;3.6;;
64018;SDS011;66942;52.138;5.216;2023-03-23T02:22:14;5.4;;;4.2;;
64018;SDS011;66942;52.138;5.216;2023-03-23T02:25:32;4.91;;;3.9;;
64018;SDS011;66942;52.138;5.216;2023-03-23T02:30:11;3.8;;;3.5;;
64018;SDS011;66942;52.138;5.216;2023-03-23T02:32:04;3.8;;;3.2;;
64018;SDS011;66942;52.138;5.216;2023-03-23T02:33:50;3.6;;;3.3;;
64018;SDS011;66942;52.138;5.216;2023-03-23T02:37:13;3.6;;;3.3;;
64018;SDS011;66942;52.138;5.216;2023-03-23T02:38:57;3.5;;;3.2;;
64018;SDS011;66942;52.138;5.216;2023-03-23T02:40:41;3.6;;;3.3;;
64018;SDS011;66942;52.138;5.216;2023-03-23T02:42:21;3.9;;;3.2;;
64018;SDS011;66942;52.138;5.216;2023-03-23T02:45:41;3.8;;;3.5;;
64018;SDS011;66942;52.138;5.216;2023-03-23T02:47:21;3.6;;;3.3;;
64018;SDS011;66942;52.138;5.216;2023-03-23T02:49:00;3.3;;;3.1;;
64018;SDS011;66942;52.138;5.216;2023-03-23T02:50:41;3.1;;;2.8;;
64018;SDS011;66942;52.138;5.216;2023-03-23T02:54:03;3.4;;;3.1;;
64018;SDS011;66942;52.138;5.216;2023-03-23T02:55:42;4.2;;;3.1;;
64018;SDS011;66942;52.138;5.216;2023-03-23T02:57:20;3.4;;;3.1;;
64018;SDS011;66942;52.138;5.216;2023-03-23T02:58:58;3.6;;;3.3;;
64018;SDS011;66942;52.138;5.216;2023-03-23T03:02:12;3.9;;;3.1;;
64018;SDS011;66942;52.138;5.216;2023-03-23T03:03:53;3.8;;;3.0;;
64018;SDS011;66942;52.138;5.216;2023-03-23T03:05:35;4.41;;;3.1;;
64018;SDS011;66942;52.138;5.216;2023-03-23T03:09:25;3.2;;;2.9;;
64018;SDS011;66942;52.138;5.216;2023-03-23T03:12:51;3.2;;;2.9;;
64018;SDS011;66942;52.138;5.216;2023-03-23T03:14:33;3.3;;;2.8;;
64018;SDS011;66942;52.138;5.216;2023-03-23T03:16:19;3.4;;;2.8;;
64018;SDS011;66942;52.138;5.216;2023-03-23T03:18:04;3.1;;;2.8;;
64018;SDS011;66942;52.138;5.216;2023-03-23T03:21:29;3.8;;;3.0;;
64018;SDS011;66942;52.138;5.216;2023-03-23T03:23:10;6.5;;;3.2;;
64018;SDS011;66942;52.138;5.216;2023-03-23T03:24:48;3.4;;;2.5;;
64018;SDS011;66942;52.138;5.216;2023-03-23T03:26:27;3.7;;;2.8;;
64018;SDS011;66942;52.138;5.216;2023-03-23T03:29:42;4.8;;;2.8;;
64018;SDS011;66942;52.138;5.216;2023-03-23T03:31:22;4.3;;;3.0;;
64018;SDS011;66942;52.138;5.216;2023-03-23T03:33:04;4.61;;;2.6;;
64018;SDS011;66942;52.138;5.216;2023-03-23T03:34:40;3.8;;;2.31;;
64018;SDS011;66942;52.138;5.216;2023-03-23T03:37:57;3.5;;;2.5;;
64018;SDS011;66942;52.138;5.216;2023-03-23T03:39:41;4.41;;;2.8;;
64018;SDS011;66942;52.138;5.216;2023-03-23T03:41:18;4.2;;;2.1;;
64018;SDS011;66942;52.138;5.216;2023-03-23T03:42:55;6.0;;;2.8;;
64018;SDS011;66942;52.138;5.216;2023-03-23T03:46:08;4.5;;;2.5;;
64018;SDS011;66942;52.138;5.216;2023-03-23T03:47:44;3.1;;;2.31;;
64018;SDS011;66942;52.138;5.216;2023-03-23T03:49:21;3.5;;;2.31;;
64018;SDS011;66942;52.138;5.216;2023-03-23T03:52:33;3.3;;;2.1;;
64018;SDS011;66942;52.138;5.216;2023-03-23T03:54:10;4.1;;;2.6;;
64018;SDS011;66942;52.138;5.216;2023-03-23T03:55:46;3.7;;;2.4;;
64018;SDS011;66942;52.138;5.216;2023-03-23T03:58:58;3.0;;;2.5;;
64018;SDS011;66942;52.138;5.216;2023-03-23T04:00:35;3.4;;;2.21;;
64018;SDS011;66942;52.138;5.216;2023-03-23T04:02:11;3.9;;;2.4;;
64018;SDS011;66942;52.138;5.216;2023-03-23T04:03:47;5.11;;;2.6;;
64018;SDS011;66942;52.138;5.216;2023-03-23T04:06:59;4.41;;;2.4;;
64018;SDS011;66942;52.138;5.216;2023-03-23T04:08:36;3.6;;;2.1;;
64018;SDS011;66942;52.138;5.216;2023-03-23T04:10:12;4.0;;;2.5;;
64018;SDS011;66942;52.138;5.216;2023-03-23T04:13:25;3.2;;;2.1;;
64018;SDS011;66942;52.138;5.216;2023-03-23T04:15:01;3.3;;;2.21;;
64018;SDS011;66942;52.138;5.216;2023-03-23T04:16:38;4.91;;;2.5;;
64018;SDS011;66942;52.138;5.216;2023-03-23T04:19:52;4.7;;;2.6;;
64018;SDS011;66942;52.138;5.216;2023-03-23T04:21:29;3.9;;;2.4;;
64018;SDS011;66942;52.138;5.216;2023-03-23T04:23:05;4.2;;;2.21;;
64018;SDS011;66942;52.138;5.216;2023-03-23T04:24:41;3.3;;;2.4;;
64018;SDS011;66942;52.138;5.216;2023-03-23T04:27:54;4.2;;;2.0;;
64018;SDS011;66942;52.138;5.216;2023-03-23T04:29:30;4.61;;;2.7;;
64018;SDS011;66942;52.138;5.216;2023-03-23T04:31:06;5.7;;;2.7;;
64018;SDS011;66942;52.138;5.216;2023-03-23T04:34:18;4.8;;;2.5;;
64018;SDS011;66942;52.138;5.216;2023-03-23T04:35:55;5.4;;;2.5;;
64018;SDS011;66942;52.138;5.216;2023-03-23T04:37:36;5.2;;;2.31;;
64018;SDS011;66942;52.138;5.216;2023-03-23T04:40:50;6.6;;;2.4;;
64018;SDS011;66942;52.138;5.216;2023-03-23T04:42:28;6.7;;;2.8;;
64018;SDS011;66942;52.138;5.216;2023-03-23T04:44:06;5.5;;;2.7;;
64018;SDS011;66942;52.138;5.216;2023-03-23T04:45:43;5.7;;;2.4;;
64018;SDS011;66942;52.138;5.216;2023-03-23T04:48:55;5.11;;;2.31;;
64018;SDS011;66942;52.138;5.216;2023-03-23T04:50:32;4.91;;;2.8;;
64018;SDS011;66942;52.138;5.216;2023-03-23T04:52:09;4.91;;;2.8;;
64018;SDS011;66942;52.138;5.216;2023-03-23T04:55:21;5.7;;;2.21;;
64018;SDS011;66942;52.138;5.216;2023-03-23T04:56:57;5.9;;;2.31;;
64018;SDS011;66942;52.138;5.216;2023-03-23T04:58:33;8.0;;;2.6;;
64018;SDS011;66942;52.138;5.216;2023-03-23T05:01:46;5.6;;;2.7;;
64018;SDS011;66942;52.138;5.216;2023-03-23T05:03:23;7.6;;;3.0;;
64018;SDS011;66942;52.138;5.216;2023-03-23T05:04:59;6.3;;;2.7;;
64018;SDS011;66942;52.138;5.216;2023-03-23T05:06:35;7.2;;;2.8;;
64018;SDS011;66942;52.138;5.216;2023-03-23T05:09:47;7.9;;;3.3;;
64018;SDS011;66942;52.138;5.216;2023-03-23T05:11:24;8.81;;;3.2;;
64018;SDS011;66942;52.138;5.216;2023-03-23T05:13:00;8.1;;;2.6;;
64018;SDS011;66942;52.138;5.216;2023-03-23T05:16:16;5.5;;;2.9;;
64018;SDS011;66942;52.138;5.216;2023-03-23T05:17:52;7.5;;;2.9;;
64018;SDS011;66942;52.138;5.216;2023-03-23T05:19:28;9.21;;;3.6;;
64018;SDS011;66942;52.138;5.216;2023-03-23T05:22:40;7.2;;;3.0;;
64018;SDS011;66942;52.138;5.216;2023-03-23T05:24:17;9.21;;;3.7;;
64018;SDS011;66942;52.138;5.216;2023-03-23T05:25:53;8.9;;;3.2;;
64018;SDS011;66942;52.138;5.216;2023-03-23T05:27:31;10.1;;;3.4;;
64018;SDS011;66942;52.138;5.216;2023-03-23T05:30:43;9.0;;;3.4;;
64018;SDS011;66942;52.138;5.216;2023-03-23T05:32:19;7.6;;;2.8;;
64018;SDS011;66942;52.138;5.216;2023-03-23T05:33:55;8.0;;;3.0;;
64018;SDS011;66942;52.138;5.216;2023-03-23T05:37:07;8.9;;;3.9;;
64018;SDS011;66942;52.138;5.216;2023-03-23T05:38:45;7.9;;;3.6;;
64018;SDS011;66942;52.138;5.216;2023-03-23T05:40:21;9.6;;;3.8;;
64018;SDS011;66942;52.138;5.216;2023-03-23T05:43:33;11.1;;;4.5;;
64018;SDS011;66942;52.138;5.216;2023-03-23T05:45:09;11.3;;;4.0;;
64018;SDS011;66942;52.138;5.216;2023-03-23T05:46:46;11.3;;;4.3;;
64018;SDS011;66942;52.138;5.216;2023-03-23T05:48:23;10.5;;;3.9;;
64018;SDS011;66942;52.138;5.216;2023-03-23T05:51:37;10.5;;;4.2;;
64018;SDS011;66942;52.138;5.216;2023-03-23T05:53:13;8.81;;;4.1;;
64018;SDS011;66942;52.138;5.216;2023-03-23T05:54:49;10.5;;;4.41;;
64018;SDS011;66942;52.138;5.216;2023-03-23T05:58:01;9.0;;;3.7;;
64018;SDS011;66942;52.138;5.216;2023-03-23T05:59:37;12.1;;;4.0;;
64018;SDS011;66942;52.138;5.216;2023-03-23T06:01:13;9.6;;;4.3;;
64018;SDS011;66942;52.138;5.216;2023-03-23T06:04:30;9.6;;;4.3;;
64018;SDS011;66942;52.138;5.216;2023-03-23T06:06:08;10.9;;;4.41;;
64018;SDS011;66942;52.138;5.216;2023-03-23T06:07:46;10.9;;;4.61;;
64018;SDS011;66942;52.138;5.216;2023-03-23T06:09:22;8.9;;;4.41;;
64018;SDS011;66942;52.138;5.216;2023-03-23T06:12:34;6.8;;;3.8;;
64018;SDS011;66942;52.138;5.216;2023-03-23T06:14:10;8.81;;;3.7;;
64018;SDS011;66942;52.138;5.216;2023-03-23T06:15:47;9.31;;;4.2;;
64018;SDS011;66942;52.138;5.216;2023-03-23T06:19:00;9.4;;;4.41;;
64018;SDS011;66942;52.138;5.216;2023-03-23T06:20:36;7.7;;;3.7;;
64018;SDS011;66942;52.138;5.216;2023-03-23T06:22:12;7.9;;;3.9;;
64018;SDS011;66942;52.138;5.216;2023-03-23T06:25:25;9.0;;;4.2;;
64018;SDS011;66942;52.138;5.216;2023-03-23T06:27:01;9.71;;;4.1;;
64018;SDS011;66942;52.138;5.216;2023-03-23T06:28:37;8.2;;;3.9;;
64018;SDS011;66942;52.138;5.216;2023-03-23T06:30:14;8.6;;;4.2;;
64018;SDS011;66942;52.138;5.216;2023-03-23T06:33:32;11.3;;;4.3;;
64018;SDS011;66942;52.138;5.216;2023-03-23T06:35:09;12.0;;;4.7;;
64018;SDS011;66942;52.138;5.216;2023-03-23T06:36:46;10.6;;;4.7;;
64018;SDS011;66942;52.138;5.216;2023-03-23T06:39:59;13.4;;;4.91;;
64018;SDS011;66942;52.138;5.216;2023-03-23T06:41:35;9.6;;;4.41;;
64018;SDS011;66942;52.138;5.216;2023-03-23T06:43:12;11.2;;;4.8;;
64018;SDS011;66942;52.138;5.216;2023-03-23T06:46:25;8.6;;;4.61;;
64018;SDS011;66942;52.138;5.216;2023-03-23T06:48:01;9.9;;;5.2;;
64018;SDS011;66942;52.138;5.216;2023-03-23T06:49:37;9.9;;;4.41;;
64018;SDS011;66942;52.138;5.216;2023-03-23T06:51:13;8.31;;;4.41;;
64018;SDS011;66942;52.138;5.216;2023-03-23T06:54:26;7.8;;;3.9;;
64018;SDS011;66942;52.138;5.216;2023-03-23T06:56:03;10.1;;;4.1;;
64018;SDS011;66942;52.138;5.216;2023-03-23T06:57:39;6.2;;;3.7;;
64018;SDS011;66942;52.138;5.216;2023-03-23T07:00:53;10.6;;;4.2;;
64018;SDS011;66942;52.138;5.216;2023-03-23T07:02:29;9.81;;;4.61;;
64018;SDS011;66942;52.138;5.216;2023-03-23T07:04:05;8.2;;;4.1;;
64018;SDS011;66942;52.138;5.216;2023-03-23T07:07:22;7.8;;;4.5;;
64018;SDS011;66942;52.138;5.216;2023-03-23T07:08:58;8.5;;;3.9;;
64018;SDS011;66942;52.138;5.216;2023-03-23T07:10:34;7.6;;;3.8;;
64018;SDS011;66942;52.138;5.216;2023-03-23T07:12:10;9.21;;;4.0;;
64018;SDS011;66942;52.138;5.216;2023-03-23T07:15:22;8.6;;;4.1;;
64018;SDS011;66942;52.138;5.216;2023-03-23T07:16:58;8.9;;;4.3;;
64018;SDS011;66942;52.138;5.216;2023-03-23T07:18:34;7.3;;;3.6;;
64018;SDS011;66942;52.138;5.216;2023-03-23T07:21:48;8.5;;;3.7;;
64018;SDS011;66942;52.138;5.216;2023-03-23T07:23:24;7.2;;;3.6;;
64018;SDS011;66942;52.138;5.216;2023-03-23T07:25:00;7.5;;;4.0;;
64018;SDS011;66942;52.138;5.216;2023-03-23T07:28:12;10.6;;;4.2;;
64018;SDS011;66942;52.138;5.216;2023-03-23T07:29:48;9.5;;;4.2;;
64018;SDS011;66942;52.138;5.216;2023-03-23T07:31:25;8.4;;;3.9;;
64018;SDS011;66942;52.138;5.216;2023-03-23T07:33:03;8.71;;;4.1;;
64018;SDS011;66942;52.138;5.216;2023-03-23T07:36:17;7.4;;;3.8;;
64018;SDS011;66942;52.138;5.216;2023-03-23T07:37:53;11.9;;;4.5;;
64018;SDS011;66942;52.138;5.216;2023-03-23T07:39:29;10.3;;;4.2;;
64018;SDS011;66942;52.138;5.216;2023-03-23T07:42:43;10.21;;;4.2;;
64018;SDS011;66942;52.138;5.216;2023-03-23T07:44:21;9.81;;;3.9;;
64018;SDS011;66942;52.138;5.216;2023-03-23T07:45:58;10.5;;;4.1;;
64018;SDS011;66942;52.138;5.216;2023-03-23T07:49:10;9.9;;;4.1;;
64018;SDS011;66942;52.138;5.216;2023-03-23T07:50:46;9.6;;;3.9;;
64018;SDS011;66942;52.138;5.216;2023-03-23T07:52:22;12.5;;;4.1;;
64018;SDS011;66942;52.138;5.216;2023-03-23T07:53:59;12.7;;;4.3;;
64018;SDS011;66942;52.138;5.216;2023-03-23T07:57:11;9.9;;;3.9;;
64018;SDS011;66942;52.138;5.216;2023-03-23T07:58:47;11.3;;;4.3;;
64018;SDS011;66942;52.138;5.216;2023-03-23T08:00:24;10.5;;;3.9;;
64018;SDS011;66942;52.138;5.216;2023-03-23T08:03:38;10.1;;;4.1;;
64018;SDS011;66942;52.138;5.216;2023-03-23T08:05:14;9.9;;;4.3;;
64018;SDS011;66942;52.138;5.216;2023-03-23T08:06:51;7.8;;;3.8;;
64018;SDS011;66942;52.138;5.216;2023-03-23T08:10:03;10.1;;;4.1;;
64018;SDS011;66942;52.138;5.216;2023-03-23T08:11:40;10.21;;;3.9;;
64018;SDS011;66942;52.138;5.216;2023-03-23T08:13:17;8.5;;;3.8;;
64018;SDS011;66942;52.138;5.216;2023-03-23T08:14:53;8.71;;;4.0;;
64018;SDS011;66942;52.138;5.216;2023-03-23T08:18:06;7.4;;;3.4;;
64018;SDS011;66942;52.138;5.216;2023-03-23T08:19:43;6.8;;;3.1;;
64018;SDS011;66942;52.138;5.216;2023-03-23T08:21:19;8.81;;;3.5;;
64018;SDS011;66942;52.138;5.216;2023-03-23T08:24:32;8.81;;;4.41;;
64018;SDS011;66942;52.138;5.216;2023-03-23T08:26:09;9.31;;;3.6;;
64018;SDS011;66942;52.138;5.216;2023-03-23T08:27:46;9.1;;;3.8;;
64018;SDS011;66942;52.138;5.216;2023-03-23T08:30:59;7.6;;;3.3;;
64018;SDS011;66942;52.138;5.216;2023-03-23T08:32:36;9.71;;;3.6;;
64018;SDS011;66942;52.138;5.216;2023-03-23T08:34:12;8.9;;;4.1;;
64018;SDS011;66942;52.138;5.216;2023-03-23T08:35:54;8.5;;;3.4;;
64018;SDS011;66942;52.138;5.216;2023-03-23T08:39:08;9.81;;;4.2;;
64018;SDS011;66942;52.138;5.216;2023-03-23T08:40:44;8.0;;;3.7;;
64018;SDS011;66942;52.138;5.216;2023-03-23T08:42:20;10.3;;;4.1;;
64018;SDS011;66942;52.138;5.216;2023-03-23T08:45:32;7.6;;;3.8;;
64018;SDS011;66942;52.138;5.216;2023-03-23T08:47:08;9.21;;;4.3;;
64018;SDS011;66942;52.138;5.216;2023-03-23T08:48:45;8.0;;;4.0;;
64018;SDS011;66942;52.138;5.216;2023-03-23T08:50:23;10.7;;;5.11;;
64018;SDS011;66942;52.138;5.216;2023-03-23T08:53:38;10.21;;;4.3;;
64018;SDS011;66942;52.138;5.216;2023-03-23T08:55:15;8.81;;;4.41;;
64018;SDS011;66942;52.138;5.216;2023-03-23T08:56:52;9.4;;;3.9;;
64018;SDS011;66942;52.138;5.216;2023-03-23T09:00:05;8.1;;;4.0;;
64018;SDS011;66942;52.138;5.216;2023-03-23T09:01:44;10.1;;;4.41;;
64018;SDS011;66942;52.138;5.216;2023-03-23T09:03:21;10.3;;;4.2;;
64018;SDS011;66942;52.138;5.216;2023-03-23T09:06:34;9.31;;;4.3;;
64018;SDS011;66942;52.138;5.216;2023-03-23T09:08:10;10.21;;;4.3;;
64018;SDS011;66942;52.138;5.216;2023-03-23T09:09:47;13.5;;;4.61;;
64018;SDS011;66942;52.138;5.216;2023-03-23T09:11:23;7.9;;;3.9;;
64018;SDS011;66942;52.138;5.216;2023-03-23T09:14:35;12.0;;;4.5;;
64018;SDS011;66942;52.138;5.216;2023-03-23T09:16:13;9.0;;;4.5;;
64018;SDS011;66942;52.138;5.216;2023-03-23T09:17:50;10.6;;;4.41;;
64018;SDS011;66942;52.138;5.216;2023-03-23T09:21:04;9.21;;;4.5;;
64018;SDS011;66942;52.138;5.216;2023-03-23T09:22:42;9.9;;;4.1;;
64018;SDS011;66942;52.138;5.216;2023-03-23T09:24:21;9.5;;;3.9;;
64018;SDS011;66942;52.138;5.216;2023-03-23T09:25:59;9.4;;;4.1;;
64018;SDS011;66942;52.138;5.216;2023-03-23T09:29:14;10.1;;;4.5;;
64018;SDS011;66942;52.138;5.216;2023-03-23T09:30:50;9.5;;;3.7;;
64018;SDS011;66942;52.138;5.216;2023-03-23T09:32:26;12.5;;;4.61;;
64018;SDS011;66942;52.138;5.216;2023-03-23T09:35:38;11.6;;;4.3;;
64018;SDS011;66942;52.138;5.216;2023-03-23T09:37:15;13.3;;;4.8;;
64018;SDS011;66942;52.138;5.216;2023-03-23T09:38:52;11.0;;;4.3;;
64018;SDS011;66942;52.138;5.216;2023-03-23T09:42:23;10.9;;;4.41;;
64018;SDS011;66942;52.138;5.216;2023-03-23T09:44:14;13.0;;;4.7;;
64018;SDS011;66942;52.138;5.216;2023-03-23T09:46:02;12.8;;;4.7;;
64018;SDS011;66942;52.138;5.216;2023-03-23T09:48:04;13.2;;;4.61;;
64018;SDS011;66942;52.138;5.216;2023-03-23T09:50:08;12.6;;;4.2;;
64018;SDS011;66942;52.138;5.216;2023-03-23T09:51:48;11.6;;;4.61;;
64018;SDS011;66942;52.138;5.216;2023-03-23T09:53:30;11.8;;;4.7;;
64018;SDS011;66942;52.138;5.216;2023-03-23T09:56:53;10.4;;;4.41;;
64018;SDS011;66942;52.138;5.216;2023-03-23T09:58:32;10.21;;;4.3;;
64018;SDS011;66942;52.138;5.216;2023-03-23T10:00:18;12.3;;;4.91;;
64018;SDS011;66942;52.138;5.216;2023-03-23T10:02:03;11.8;;;4.5;;
64018;SDS011;66942;52.138;5.216;2023-03-23T10:03:58;12.8;;;4.3;;
64018;SDS011;66942;52.138;5.216;2023-03-23T10:05:52;12.2;;;4.41;;
64018;SDS011;66942;52.138;5.216;2023-03-23T10:09:06;10.0;;;3.9;;
64018;SDS011;66942;52.138;5.216;2023-03-23T10:10:52;8.71;;;4.1;;
64018;SDS011;66942;52.138;5.216;2023-03-23T10:12:39;9.5;;;4.1;;
64018;SDS011;66942;52.138;5.216;2023-03-23T10:14:28;10.6;;;4.0;;
64018;SDS011;66942;52.138;5.216;2023-03-23T10:16:17;11.0;;;4.2;;
64018;SDS011;66942;52.138;5.216;2023-03-23T10:19:49;9.6;;;3.6;;
64018;SDS011;66942;52.138;5.216;2023-03-23T10:21:51;10.0;;;4.0;;
64018;SDS011;66942;52.138;5.216;2023-03-23T10:23:40;11.2;;;3.9;;
64018;SDS011;66942;52.138;5.216;2023-03-23T10:25:28;11.3;;;4.2;;
64018;SDS011;66942;52.138;5.216;2023-03-23T10:27:12;8.9;;;4.0;;
64018;SDS011;66942;52.138;5.216;2023-03-23T10:28:56;9.81;;;4.41;;
64018;SDS011;66942;52.138;5.216;2023-03-23T10:32:17;12.7;;;4.3;;
64018;SDS011;66942;52.138;5.216;2023-03-23T10:33:59;10.7;;;4.0;;
64018;SDS011;66942;52.138;5.216;2023-03-23T10:35:42;13.1;;;3.9;;
64018;SDS011;66942;52.138;5.216;2023-03-23T10:37:34;10.8;;;4.1;;
64018;SDS011;66942;52.138;5.216;2023-03-23T10:39:17;10.5;;;4.41;;
64018;SDS011;66942;52.138;5.216;2023-03-23T10:42:41;9.6;;;4.1;;
64018;SDS011;66942;52.138;5.216;2023-03-23T10:44:19;11.4;;;3.7;;
64018;SDS011;66942;52.138;5.216;2023-03-23T10:45:59;10.21;;;4.1;;
64018;SDS011;66942;52.138;5.216;2023-03-23T10:47:48;9.0;;;4.1;;
64018;SDS011;66942;52.138;5.216;2023-03-23T10:51:14;10.3;;;4.1;;
64018;SDS011;66942;52.138;5.216;2023-03-23T10:52:54;12.5;;;4.3;;
64018;SDS011;66942;52.138;5.216;2023-03-23T10:54:36;12.1;;;4.41;;
64018;SDS011;66942;52.138;5.216;2023-03-23T10:56:21;11.8;;;4.3;;
64018;SDS011;66942;52.138;5.216;2023-03-23T10:58:02;12.3;;;4.3;;
64018;SDS011;66942;52.138;5.216;2023-03-23T11:01:18;10.9;;;4.2;;
64018;SDS011;66942;52.138;5.216;2023-03-23T11:02:58;10.6;;;4.1;;
64018;SDS011;66942;52.138;5.216;2023-03-23T11:04:37;11.3;;;4.1;;
64018;SDS011;66942;52.138;5.216;2023-03-23T11:07:57;13.3;;;4.7;;
64018;SDS011;66942;52.138;5.216;2023-03-23T11:09:36;11.7;;;4.3;;
64018;SDS011;66942;52.138;5.216;2023-03-23T11:11:15;9.9;;;4.1;;
64018;SDS011;66942;52.138;5.216;2023-03-23T11:12:56;10.1;;;4.1;;
64018;SDS011;66942;52.138;5.216;2023-03-23T11:16:21;10.0;;;3.7;;
64018;SDS011;66942;52.138;5.216;2023-03-23T11:18:01;9.71;;;3.9;;
64018;SDS011;66942;52.138;5.216;2023-03-23T11:19:39;11.0;;;4.41;;
64018;SDS011;66942;52.138;5.216;2023-03-23T11:21:15;9.31;;;3.9;;
64018;SDS011;66942;52.138;5.216;2023-03-23T11:24:29;9.0;;;3.9;;
64018;SDS011;66942;52.138;5.216;2023-03-23T11:26:10;8.81;;;3.6;;
64018;SDS011;66942;52.138;5.216;2023-03-23T11:27:50;10.4;;;3.9;;
64018;SDS011;66942;52.138;5.216;2023-03-23T11:29:27;9.71;;;3.8;;
64018;SDS011;66942;52.138;5.216;2023-03-23T11:32:43;8.9;;;4.3;;
64018;SDS011;66942;52.138;5.216;2023-03-23T11:34:21;8.81;;;3.5;;
64018;SDS011;66942;52.138;5.216;2023-03-23T11:35:59;9.5;;;4.3;;
64018;SDS011;66942;52.138;5.216;2023-03-23T11:39:21;10.21;;;4.1;;
64018;SDS011;66942;52.138;5.216;2023-03-23T11:40:59;6.7;;;3.5;;
64018;SDS011;66942;52.138;5.216;2023-03-23T11:42:37;9.6;;;3.7;;
64018;SDS011;66942;52.138;5.216;2023-03-23T11:44:21;8.6;;;3.9;;
64018;SDS011;66942;52.138;5.216;2023-03-23T11:47:49;8.71;;;3.6;;
64018;SDS011;66942;52.138;5.216;2023-03-23T11:49:38;10.21;;;3.7;;
64018;SDS011;66942;52.138;5.216;2023-03-23T11:51:23;6.8;;;3.5;;
64018;SDS011;66942;52.138;5.216;2023-03-23T11:53:10;9.31;;;3.9;;
64018;SDS011;66942;52.138;5.216;2023-03-23T11:54:57;10.9;;;4.2;;
64018;SDS011;66942;52.138;5.216;2023-03-23T11:56:41;11.1;;;4.1;;
64018;SDS011;66942;52.138;5.216;2023-03-23T11:59:56;12.4;;;4.2;;
64018;SDS011;66942;52.138;5.216;2023-03-23T12:01:37;9.81;;;4.0;;
64018;SDS011;66942;52.138;5.216;2023-03-23T12:03:35;12.8;;;4.8;;
64018;SDS011;66942;52.138;5.216;2023-03-23T12:05:34;11.6;;;4.41;;
64018;SDS011;66942;52.138;5.216;2023-03-23T12:07:24;13.1;;;4.61;;
64018;SDS011;66942;52.138;5.216;2023-03-23T12:09:21;13.1;;;4.61;;
64018;SDS011;66942;52.138;5.216;2023-03-23T12:11:14;12.7;;;4.5;;
64018;SDS011;66942;52.138;5.216;2023-03-23T12:14:51;11.0;;;4.3;;
64018;SDS011;66942;52.138;5.216;2023-03-23T12:16:41;11.3;;;4.41;;
64018;SDS011;66942;52.138;5.216;2023-03-23T12:18:37;11.4;;;4.5;;
64018;SDS011;66942;52.138;5.216;2023-03-23T12:20:31;13.8;;;4.61;;
64018;SDS011;66942;52.138;5.216;2023-03-23T12:22:18;10.8;;;4.1;;
64018;SDS011;66942;52.138;5.216;2023-03-23T12:24:21;11.4;;;4.1;;
64018;SDS011;66942;52.138;5.216;2023-03-23T12:26:15;8.9;;;4.1;;
64018;SDS011;66942;52.138;5.216;2023-03-23T12:29:46;10.4;;;4.3;;
64018;SDS011;66942;52.138;5.216;2023-03-23T12:31:40;9.81;;;4.41;;
64018;SDS011;66942;52.138;5.216;2023-03-23T12:33:27;11.2;;;3.9;;
64018;SDS011;66942;52.138;5.216;2023-03-23T12:35:22;9.9;;;4.0;;
64018;SDS011;66942;52.138;5.216;2023-03-23T12:37:19;9.21;;;4.0;;
64018;SDS011;66942;52.138;5.216;2023-03-23T12:39:30;10.4;;;3.9;;
64018;SDS011;66942;52.138;5.216;2023-03-23T12:41:20;10.3;;;3.9;;
64018;SDS011;66942;52.138;5.216;2023-03-23T12:43:04;10.1;;;3.7;;
64018;SDS011;66942;52.138;5.216;2023-03-23T12:44:56;8.6;;;3.6;;
64018;SDS011;66942;52.138;5.216;2023-03-23T12:46:52;7.3;;;3.0;;
64018;SDS011;66942;52.138;5.216;2023-03-23T12:49:29;6.8;;;3.4;;
64018;SDS011;66942;52.138;5.216;2023-03-23T12:51:13;8.6;;;3.3;;
64018;SDS011;66942;52.138;5.216;2023-03-23T12:54:40;9.1;;;3.5;;
64018;SDS011;66942;52.138;5.216;2023-03-23T12:56:23;8.31;;;3.7;;
64018;SDS011;66942;52.138;5.216;2023-03-23T12:58:05;8.31;;;3.3;;
64018;SDS011;66942;52.138;5.216;2023-03-23T12:59:47;6.4;;;2.9;;